sensor_id;sensor_type;location;lat;lon;timestamp;temperature;humidity
10968;DHT22;5536;49.602;10.980;2022-11-03T00:00:10;5.40;99.90
10968;DHT22;5536;49.602;10.980;2022-11-03T00:02:37;5.30;99.90
10968;DHT22;5536;49.602;10.980;2022-11-03T00:05:05;5.40;99.90
10968;DHT22;5536;49.602;10.980;2022-11-03T00:07:45;5.40;99.90
10968;DHT22;5536;49.602;10.980;2022-11-03T00:10:14;5.50;99.90
10968;DHT22;5536;49.602;10.980;2022-11-03T00:12:41;5.50;99.90
10968;DHT22;5536;49.602;10.980;2022-11-03T00:15:08;5.40;99.90
10968;DHT22;5536;49.602;10.980;2022-11-03T00:17:35;5.40;99.90
10968;DHT22;5536;49.602;10.980;2022-11-03T00:20:02;5.50;99.90
10968;DHT22;5536;49.602;10.980;2022-11-03T00:22:29;5.40;99.90
10968;DHT22;5536;49.602;10.980;2022-11-03T00:24:58;5.40;99.90
10968;DHT22;5536;49.602;10.980;2022-11-03T00:27:27;5.40;99.90
10968;DHT22;5536;49.602;10.980;2022-11-03T00:29:54;5.40;99.90
10968;DHT22;5536;49.602;10.980;2022-11-03T00:32:20;5.40;99.90
10968;DHT22;5536;49.602;10.980;2022-11-03T00:34:47;5.40;99.90
10968;DHT22;5536;49.602;10.980;2022-11-03T00:37:14;5.30;99.90
10968;DHT22;5536;49.602;10.980;2022-11-03T00:39:41;5.30;99.90
10968;DHT22;5536;49.602;10.980;2022-11-03T00:42:08;5.30;99.90
10968;DHT22;5536;49.602;10.980;2022-11-03T00:44:36;5.20;99.90
10968;DHT22;5536;49.602;10.980;2022-11-03T00:47:03;5.20;99.90
10968;DHT22;5536;49.602;10.980;2022-11-03T00:49:30;5.20;99.90
10968;DHT22;5536;49.602;10.980;2022-11-03T00:51:57;5.20;99.90
10968;DHT22;5536;49.602;10.980;2022-11-03T00:54:24;5.20;99.90
10968;DHT22;5536;49.602;10.980;2022-11-03T00:56:51;5.20;99.90
10968;DHT22;5536;49.602;10.980;2022-11-03T00:59:18;5.20;99.90
10968;DHT22;5536;49.602;10.980;2022-11-03T01:01:46;5.20;99.90
10968;DHT22;5536;49.602;10.980;2022-11-03T01:04:14;5.30;99.90
10968;DHT22;5536;49.602;10.980;2022-11-03T01:07:00;5.40;99.90
10968;DHT22;5536;49.602;10.980;2022-11-03T01:09:28;5.50;99.90
10968;DHT22;5536;49.602;10.980;2022-11-03T01:11:57;5.40;99.90
10968;DHT22;5536;49.602;10.980;2022-11-03T01:14:25;5.30;99.90
10968;DHT22;5536;49.602;10.980;2022-11-03T01:16:53;5.30;99.90
10968;DHT22;5536;49.602;10.980;2022-11-03T01:19:20;5.30;99.90
10968;DHT22;5536;49.602;10.980;2022-11-03T01:21:48;5.20;99.90
10968;DHT22;5536;49.602;10.980;2022-11-03T01:24:16;5.30;99.90
10968;DHT22;5536;49.602;10.980;2022-11-03T01:26:43;5.20;99.90
10968;DHT22;5536;49.602;10.980;2022-11-03T01:29:10;5.20;99.90
10968;DHT22;5536;49.602;10.980;2022-11-03T01:31:37;5.30;99.90
10968;DHT22;5536;49.602;10.980;2022-11-03T01:34:05;5.20;99.90
10968;DHT22;5536;49.602;10.980;2022-11-03T01:36:32;5.30;99.90
10968;DHT22;5536;49.602;10.980;2022-11-03T01:38:59;5.20;99.90
10968;DHT22;5536;49.602;10.980;2022-11-03T01:41:27;5.20;99.90
10968;DHT22;5536;49.602;10.980;2022-11-03T01:44:26;5.10;99.90
10968;DHT22;5536;49.602;10.980;2022-11-03T01:46:56;5.00;99.90
10968;DHT22;5536;49.602;10.980;2022-11-03T01:49:30;5.10;99.90
10968;DHT22;5536;49.602;10.980;2022-11-03T01:52:02;5.00;99.90
10968;DHT22;5536;49.602;10.980;2022-11-03T01:54:31;5.00;99.90
10968;DHT22;5536;49.602;10.980;2022-11-03T01:56:59;5.10;99.90
10968;DHT22;5536;49.602;10.980;2022-11-03T01:59:29;5.00;99.90
10968;DHT22;5536;49.602;10.980;2022-11-03T02:01:56;5.00;99.90
10968;DHT22;5536;49.602;10.980;2022-11-03T02:04:28;5.10;99.90
10968;DHT22;5536;49.602;10.980;2022-11-03T02:07:05;5.40;99.90
10968;DHT22;5536;49.602;10.980;2022-11-03T02:09:33;5.60;99.90
10968;DHT22;5536;49.602;10.980;2022-11-03T02:12:00;5.60;99.90
10968;DHT22;5536;49.602;10.980;2022-11-03T02:14:36;5.50;99.90
10968;DHT22;5536;49.602;10.980;2022-11-03T02:17:07;5.60;99.90
10968;DHT22;5536;49.602;10.980;2022-11-03T02:19:38;5.50;99.90
10968;DHT22;5536;49.602;10.980;2022-11-03T02:22:23;5.50;99.90
10968;DHT22;5536;49.602;10.980;2022-11-03T02:24:56;5.40;99.90
10968;DHT22;5536;49.602;10.980;2022-11-03T02:27:27;5.40;99.90
10968;DHT22;5536;49.602;10.980;2022-11-03T02:29:54;5.30;99.90
10968;DHT22;5536;49.602;10.980;2022-11-03T02:32:23;5.20;99.90
10968;DHT22;5536;49.602;10.980;2022-11-03T02:34:58;5.20;99.90
10968;DHT22;5536;49.602;10.980;2022-11-03T02:37:28;5.10;99.90
10968;DHT22;5536;49.602;10.980;2022-11-03T02:40:00;4.90;99.90
10968;DHT22;5536;49.602;10.980;2022-11-03T02:42:30;4.90;99.90
10968;DHT22;5536;49.602;10.980;2022-11-03T02:45:00;4.80;99.90
10968;DHT22;5536;49.602;10.980;2022-11-03T02:47:28;4.70;99.90
10968;DHT22;5536;49.602;10.980;2022-11-03T02:49:57;4.70;99.90
10968;DHT22;5536;49.602;10.980;2022-11-03T02:52:36;4.60;99.90
10968;DHT22;5536;49.602;10.980;2022-11-03T02:55:10;4.50;99.90
10968;DHT22;5536;49.602;10.980;2022-11-03T02:57:44;4.40;99.90
10968;DHT22;5536;49.602;10.980;2022-11-03T03:00:14;4.40;99.90
10968;DHT22;5536;49.602;10.980;2022-11-03T03:02:49;4.50;99.90
10968;DHT22;5536;49.602;10.980;2022-11-03T03:05:18;4.50;99.90
10968;DHT22;5536;49.602;10.980;2022-11-03T03:07:49;4.40;99.90
10968;DHT22;5536;49.602;10.980;2022-11-03T03:10:20;4.50;99.90
10968;DHT22;5536;49.602;10.980;2022-11-03T03:12:52;4.50;99.90
10968;DHT22;5536;49.602;10.980;2022-11-03T03:15:24;4.60;99.90
10968;DHT22;5536;49.602;10.980;2022-11-03T03:17:57;4.60;99.90
10968;DHT22;5536;49.602;10.980;2022-11-03T03:20:31;4.60;99.90
10968;DHT22;5536;49.602;10.980;2022-11-03T03:23:01;4.70;99.90
10968;DHT22;5536;49.602;10.980;2022-11-03T03:25:36;4.50;99.90
10968;DHT22;5536;49.602;10.980;2022-11-03T03:28:08;4.30;99.90
10968;DHT22;5536;49.602;10.980;2022-11-03T03:30:37;4.30;99.90
10968;DHT22;5536;49.602;10.980;2022-11-03T03:33:06;4.30;99.90
10968;DHT22;5536;49.602;10.980;2022-11-03T03:35:35;4.30;99.90
10968;DHT22;5536;49.602;10.980;2022-11-03T03:38:06;4.20;99.90
10968;DHT22;5536;49.602;10.980;2022-11-03T03:40:36;4.20;99.90
10968;DHT22;5536;49.602;10.980;2022-11-03T03:43:07;4.10;99.90
10968;DHT22;5536;49.602;10.980;2022-11-03T03:45:35;4.20;99.90
10968;DHT22;5536;49.602;10.980;2022-11-03T03:48:03;4.10;99.90
10968;DHT22;5536;49.602;10.980;2022-11-03T03:50:34;4.10;99.90
10968;DHT22;5536;49.602;10.980;2022-11-03T03:53:04;4.10;99.90
10968;DHT22;5536;49.602;10.980;2022-11-03T03:55:34;4.10;99.90
10968;DHT22;5536;49.602;10.980;2022-11-03T03:58:02;4.10;99.90
10968;DHT22;5536;49.602;10.980;2022-11-03T04:00:31;4.00;99.90
10968;DHT22;5536;49.602;10.980;2022-11-03T04:02:58;4.00;99.90
10968;DHT22;5536;49.602;10.980;2022-11-03T04:05:26;4.00;99.90
10968;DHT22;5536;49.602;10.980;2022-11-03T04:07:53;4.00;99.90
10968;DHT22;5536;49.602;10.980;2022-11-03T04:10:21;4.00;99.90
10968;DHT22;5536;49.602;10.980;2022-11-03T04:12:48;3.90;99.90
10968;DHT22;5536;49.602;10.980;2022-11-03T04:15:35;4.00;99.90
10968;DHT22;5536;49.602;10.980;2022-11-03T04:18:20;3.90;99.90
10968;DHT22;5536;49.602;10.980;2022-11-03T04:21:07;3.90;99.90
10968;DHT22;5536;49.602;10.980;2022-11-03T04:23:51;3.80;99.90
10968;DHT22;5536;49.602;10.980;2022-11-03T04:26:19;3.80;99.90
10968;DHT22;5536;49.602;10.980;2022-11-03T04:28:47;3.90;99.90
10968;DHT22;5536;49.602;10.980;2022-11-03T04:31:17;3.80;99.90
10968;DHT22;5536;49.602;10.980;2022-11-03T04:33:45;3.80;99.90
10968;DHT22;5536;49.602;10.980;2022-11-03T04:36:18;3.90;99.90
10968;DHT22;5536;49.602;10.980;2022-11-03T04:38:46;3.80;99.90
10968;DHT22;5536;49.602;10.980;2022-11-03T04:41:16;3.80;99.90
10968;DHT22;5536;49.602;10.980;2022-11-03T04:43:44;3.80;99.90
10968;DHT22;5536;49.602;10.980;2022-11-03T04:46:15;3.90;99.90
10968;DHT22;5536;49.602;10.980;2022-11-03T04:48:43;3.90;99.90
10968;DHT22;5536;49.602;10.980;2022-11-03T04:51:15;3.90;99.90
10968;DHT22;5536;49.602;10.980;2022-11-03T04:54:09;3.90;99.90
10968;DHT22;5536;49.602;10.980;2022-11-03T04:57:29;4.00;99.90
10968;DHT22;5536;49.602;10.980;2022-11-03T05:00:36;3.90;99.90
10968;DHT22;5536;49.602;10.980;2022-11-03T05:03:26;4.00;99.90
10968;DHT22;5536;49.602;10.980;2022-11-03T05:06:15;4.00;99.90
10968;DHT22;5536;49.602;10.980;2022-11-03T05:09:13;4.00;99.90
10968;DHT22;5536;49.602;10.980;2022-11-03T05:12:11;4.00;99.90
10968;DHT22;5536;49.602;10.980;2022-11-03T05:15:13;3.90;99.90
10968;DHT22;5536;49.602;10.980;2022-11-03T05:18:14;3.90;99.90
10968;DHT22;5536;49.602;10.980;2022-11-03T05:24:49;4.00;99.90
10968;DHT22;5536;49.602;10.980;2022-11-03T05:27:44;4.00;99.90
10968;DHT22;5536;49.602;10.980;2022-11-03T05:30:54;4.10;99.90
10968;DHT22;5536;49.602;10.980;2022-11-03T05:35:56;4.10;99.90
10968;DHT22;5536;49.602;10.980;2022-11-03T05:44:13;4.00;99.90
10968;DHT22;5536;49.602;10.980;2022-11-03T05:47:17;4.10;99.90
10968;DHT22;5536;49.602;10.980;2022-11-03T05:49:46;4.10;99.90
10968;DHT22;5536;49.602;10.980;2022-11-03T05:52:51;4.20;99.90
10968;DHT22;5536;49.602;10.980;2022-11-03T05:55:25;4.20;99.90
10968;DHT22;5536;49.602;10.980;2022-11-03T06:11:57;4.10;99.90
10968;DHT22;5536;49.602;10.980;2022-11-03T06:17:09;4.10;99.90
10968;DHT22;5536;49.602;10.980;2022-11-03T06:18:39;4.20;99.90
10968;DHT22;5536;49.602;10.980;2022-11-03T06:21:38;4.20;99.90
10968;DHT22;5536;49.602;10.980;2022-11-03T06:24:38;4.30;99.90
10968;DHT22;5536;49.602;10.980;2022-11-03T06:34:37;4.40;99.90
10968;DHT22;5536;49.602;10.980;2022-11-03T06:37:25;4.40;99.90
10968;DHT22;5536;49.602;10.980;2022-11-03T06:40:34;4.50;99.90
10968;DHT22;5536;49.602;10.980;2022-11-03T06:43:24;4.70;99.90
10968;DHT22;5536;49.602;10.980;2022-11-03T06:45:56;4.70;99.90
10968;DHT22;5536;49.602;10.980;2022-11-03T06:48:32;4.80;99.90
10968;DHT22;5536;49.602;10.980;2022-11-03T06:51:11;4.70;99.90
10968;DHT22;5536;49.602;10.980;2022-11-03T06:53:40;4.60;99.90
10968;DHT22;5536;49.602;10.980;2022-11-03T06:56:10;4.70;99.90
10968;DHT22;5536;49.602;10.980;2022-11-03T06:58:39;4.70;99.90
10968;DHT22;5536;49.602;10.980;2022-11-03T07:01:13;4.60;99.90
10968;DHT22;5536;49.602;10.980;2022-11-03T07:03:40;4.60;99.90
10968;DHT22;5536;49.602;10.980;2022-11-03T07:06:16;4.70;99.90
10968;DHT22;5536;49.602;10.980;2022-11-03T07:08:47;4.80;99.90
10968;DHT22;5536;49.602;10.980;2022-11-03T07:11:18;5.00;99.90
10968;DHT22;5536;49.602;10.980;2022-11-03T07:13:46;5.00;99.90
10968;DHT22;5536;49.602;10.980;2022-11-03T07:16:16;5.00;99.90
10968;DHT22;5536;49.602;10.980;2022-11-03T07:18:45;5.00;99.90
10968;DHT22;5536;49.602;10.980;2022-11-03T07:21:26;5.20;99.90
10968;DHT22;5536;49.602;10.980;2022-11-03T07:23:55;5.30;99.90
10968;DHT22;5536;49.602;10.980;2022-11-03T07:26:22;5.20;99.90
10968;DHT22;5536;49.602;10.980;2022-11-03T07:28:50;5.30;99.90
10968;DHT22;5536;49.602;10.980;2022-11-03T07:31:20;5.50;99.90
10968;DHT22;5536;49.602;10.980;2022-11-03T07:33:48;5.40;99.90
10968;DHT22;5536;49.602;10.980;2022-11-03T07:36:20;5.40;99.90
10968;DHT22;5536;49.602;10.980;2022-11-03T07:38:51;5.50;99.90
10968;DHT22;5536;49.602;10.980;2022-11-03T07:41:20;5.60;99.90
10968;DHT22;5536;49.602;10.980;2022-11-03T07:43:53;5.70;99.90
10968;DHT22;5536;49.602;10.980;2022-11-03T07:46:21;5.90;99.90
10968;DHT22;5536;49.602;10.980;2022-11-03T07:48:49;6.10;99.90
10968;DHT22;5536;49.602;10.980;2022-11-03T07:51:21;6.10;99.90
10968;DHT22;5536;49.602;10.980;2022-11-03T07:53:50;6.20;99.90
10968;DHT22;5536;49.602;10.980;2022-11-03T07:56:19;6.10;99.90
10968;DHT22;5536;49.602;10.980;2022-11-03T07:58:48;6.20;99.90
10968;DHT22;5536;49.602;10.980;2022-11-03T08:01:23;6.30;99.90
10968;DHT22;5536;49.602;10.980;2022-11-03T08:03:51;6.30;99.90
10968;DHT22;5536;49.602;10.980;2022-11-03T08:06:18;6.40;99.90
10968;DHT22;5536;49.602;10.980;2022-11-03T08:08:47;6.50;99.90
10968;DHT22;5536;49.602;10.980;2022-11-03T08:11:14;6.70;99.90
10968;DHT22;5536;49.602;10.980;2022-11-03T08:13:41;6.80;99.90
10968;DHT22;5536;49.602;10.980;2022-11-03T08:16:07;6.90;99.90
10968;DHT22;5536;49.602;10.980;2022-11-03T08:18:34;7.00;99.90
10968;DHT22;5536;49.602;10.980;2022-11-03T08:21:02;7.10;99.90
10968;DHT22;5536;49.602;10.980;2022-11-03T08:23:29;7.20;99.90
10968;DHT22;5536;49.602;10.980;2022-11-03T08:25:57;7.30;99.90
10968;DHT22;5536;49.602;10.980;2022-11-03T08:28:24;7.40;99.90
10968;DHT22;5536;49.602;10.980;2022-11-03T08:30:51;7.50;99.90
10968;DHT22;5536;49.602;10.980;2022-11-03T08:33:18;7.60;99.90
10968;DHT22;5536;49.602;10.980;2022-11-03T08:35:45;7.70;99.90
10968;DHT22;5536;49.602;10.980;2022-11-03T08:38:12;7.80;99.90
10968;DHT22;5536;49.602;10.980;2022-11-03T08:40:39;7.90;99.90
10968;DHT22;5536;49.602;10.980;2022-11-03T08:43:07;8.00;99.90
10968;DHT22;5536;49.602;10.980;2022-11-03T08:45:34;8.10;99.90
10968;DHT22;5536;49.602;10.980;2022-11-03T08:48:01;8.30;99.90
10968;DHT22;5536;49.602;10.980;2022-11-03T08:50:28;8.40;99.90
10968;DHT22;5536;49.602;10.980;2022-11-03T08:52:55;8.50;99.90
10968;DHT22;5536;49.602;10.980;2022-11-03T08:55:21;8.60;99.90
10968;DHT22;5536;49.602;10.980;2022-11-03T08:57:48;8.70;99.90
10968;DHT22;5536;49.602;10.980;2022-11-03T09:00:17;8.80;99.90
10968;DHT22;5536;49.602;10.980;2022-11-03T09:02:44;8.80;99.90
10968;DHT22;5536;49.602;10.980;2022-11-03T09:05:11;8.90;99.90
10968;DHT22;5536;49.602;10.980;2022-11-03T09:07:39;8.90;99.90
10968;DHT22;5536;49.602;10.980;2022-11-03T09:10:08;9.00;99.90
10968;DHT22;5536;49.602;10.980;2022-11-03T09:12:35;9.20;99.90
10968;DHT22;5536;49.602;10.980;2022-11-03T09:15:02;9.20;99.90
10968;DHT22;5536;49.602;10.980;2022-11-03T09:17:31;9.30;99.90
10968;DHT22;5536;49.602;10.980;2022-11-03T09:19:58;9.50;99.90
10968;DHT22;5536;49.602;10.980;2022-11-03T09:22:25;9.60;99.90
10968;DHT22;5536;49.602;10.980;2022-11-03T09:24:52;9.70;99.90
10968;DHT22;5536;49.602;10.980;2022-11-03T09:27:19;9.70;99.90
10968;DHT22;5536;49.602;10.980;2022-11-03T09:29:46;9.80;99.90
10968;DHT22;5536;49.602;10.980;2022-11-03T09:32:13;10.00;99.90
10968;DHT22;5536;49.602;10.980;2022-11-03T09:34:42;10.10;99.90
10968;DHT22;5536;49.602;10.980;2022-11-03T09:37:08;10.20;99.90
10968;DHT22;5536;49.602;10.980;2022-11-03T09:39:35;10.30;99.90
10968;DHT22;5536;49.602;10.980;2022-11-03T09:42:03;10.40;99.90
10968;DHT22;5536;49.602;10.980;2022-11-03T09:44:31;10.50;99.90
10968;DHT22;5536;49.602;10.980;2022-11-03T09:46:59;10.50;99.90
10968;DHT22;5536;49.602;10.980;2022-11-03T09:49:29;10.70;99.90
10968;DHT22;5536;49.602;10.980;2022-11-03T09:51:59;10.80;99.90
10968;DHT22;5536;49.602;10.980;2022-11-03T09:54:27;10.90;99.90
10968;DHT22;5536;49.602;10.980;2022-11-03T09:56:56;11.00;99.90
10968;DHT22;5536;49.602;10.980;2022-11-03T09:59:24;11.10;99.90
10968;DHT22;5536;49.602;10.980;2022-11-03T10:01:52;11.30;99.90
10968;DHT22;5536;49.602;10.980;2022-11-03T10:04:24;11.40;99.90
10968;DHT22;5536;49.602;10.980;2022-11-03T10:06:53;11.60;99.90
10968;DHT22;5536;49.602;10.980;2022-11-03T10:09:21;11.60;99.90
10968;DHT22;5536;49.602;10.980;2022-11-03T10:11:51;11.70;99.90
10968;DHT22;5536;49.602;10.980;2022-11-03T10:14:19;11.80;99.90
10968;DHT22;5536;49.602;10.980;2022-11-03T10:16:51;11.90;99.90
10968;DHT22;5536;49.602;10.980;2022-11-03T10:19:18;11.90;99.90
10968;DHT22;5536;49.602;10.980;2022-11-03T10:21:45;12.10;99.90
10968;DHT22;5536;49.602;10.980;2022-11-03T10:24:13;12.30;99.90
10968;DHT22;5536;49.602;10.980;2022-11-03T10:26:45;12.50;99.90
10968;DHT22;5536;49.602;10.980;2022-11-03T10:29:18;12.70;99.90
10968;DHT22;5536;49.602;10.980;2022-11-03T10:31:49;12.80;99.90
10968;DHT22;5536;49.602;10.980;2022-11-03T10:34:27;13.00;99.90
10968;DHT22;5536;49.602;10.980;2022-11-03T10:37:14;13.20;99.90
10968;DHT22;5536;49.602;10.980;2022-11-03T10:39:44;13.40;99.90
10968;DHT22;5536;49.602;10.980;2022-11-03T10:42:20;13.50;99.90
10968;DHT22;5536;49.602;10.980;2022-11-03T10:44:50;13.60;99.90
10968;DHT22;5536;49.602;10.980;2022-11-03T10:47:30;13.70;99.90
10968;DHT22;5536;49.602;10.980;2022-11-03T10:49:58;13.80;99.90
10968;DHT22;5536;49.602;10.980;2022-11-03T10:52:27;13.80;99.90
10968;DHT22;5536;49.602;10.980;2022-11-03T10:54:57;13.90;99.90
10968;DHT22;5536;49.602;10.980;2022-11-03T10:57:27;14.10;99.90
10968;DHT22;5536;49.602;10.980;2022-11-03T10:59:54;14.10;99.90
10968;DHT22;5536;49.602;10.980;2022-11-03T11:02:24;14.30;99.90
10968;DHT22;5536;49.602;10.980;2022-11-03T11:04:55;14.30;99.90
10968;DHT22;5536;49.602;10.980;2022-11-03T11:07:31;14.40;99.90
10968;DHT22;5536;49.602;10.980;2022-11-03T11:10:05;14.60;99.90
10968;DHT22;5536;49.602;10.980;2022-11-03T11:12:34;15.00;99.90
10968;DHT22;5536;49.602;10.980;2022-11-03T11:15:02;15.40;99.90
10968;DHT22;5536;49.602;10.980;2022-11-03T11:17:45;15.30;99.90
10968;DHT22;5536;49.602;10.980;2022-11-03T11:26:16;14.90;99.90
10968;DHT22;5536;49.602;10.980;2022-11-03T11:28:46;14.70;99.90
10968;DHT22;5536;49.602;10.980;2022-11-03T11:31:33;14.60;99.90
10968;DHT22;5536;49.602;10.980;2022-11-03T11:34:39;14.40;99.90
10968;DHT22;5536;49.602;10.980;2022-11-03T11:37:32;14.60;99.90
10968;DHT22;5536;49.602;10.980;2022-11-03T11:39:59;15.00;99.90
10968;DHT22;5536;49.602;10.980;2022-11-03T11:42:26;15.30;99.90
10968;DHT22;5536;49.602;10.980;2022-11-03T11:44:59;15.40;99.90
10968;DHT22;5536;49.602;10.980;2022-11-03T11:50:27;16.00;99.90
10968;DHT22;5536;49.602;10.980;2022-11-03T11:53:08;16.00;99.90
10968;DHT22;5536;49.602;10.980;2022-11-03T11:55:49;16.30;99.90
10968;DHT22;5536;49.602;10.980;2022-11-03T11:58:20;16.60;99.90
10968;DHT22;5536;49.602;10.980;2022-11-03T12:00:55;16.60;99.90
10968;DHT22;5536;49.602;10.980;2022-11-03T12:03:27;16.40;99.90
10968;DHT22;5536;49.602;10.980;2022-11-03T12:05:54;15.80;99.90
10968;DHT22;5536;49.602;10.980;2022-11-03T12:08:26;15.40;99.90
10968;DHT22;5536;49.602;10.980;2022-11-03T12:10:58;15.30;99.90
10968;DHT22;5536;49.602;10.980;2022-11-03T12:13:48;15.30;99.90
10968;DHT22;5536;49.602;10.980;2022-11-03T12:16:28;15.40;99.90
10968;DHT22;5536;49.602;10.980;2022-11-03T12:18:55;15.40;99.90
10968;DHT22;5536;49.602;10.980;2022-11-03T12:21:47;15.20;99.90
10968;DHT22;5536;49.602;10.980;2022-11-03T12:24:36;15.30;99.90
10968;DHT22;5536;49.602;10.980;2022-11-03T12:27:17;15.30;99.90
10968;DHT22;5536;49.602;10.980;2022-11-03T12:29:44;15.30;99.90
10968;DHT22;5536;49.602;10.980;2022-11-03T12:32:13;15.20;99.90
10968;DHT22;5536;49.602;10.980;2022-11-03T12:34:40;15.30;99.90
10968;DHT22;5536;49.602;10.980;2022-11-03T12:37:07;15.30;99.90
10968;DHT22;5536;49.602;10.980;2022-11-03T12:39:34;15.20;99.90
10968;DHT22;5536;49.602;10.980;2022-11-03T12:42:01;15.20;99.90
10968;DHT22;5536;49.602;10.980;2022-11-03T12:44:28;15.10;99.90
10968;DHT22;5536;49.602;10.980;2022-11-03T12:46:55;15.10;99.90
10968;DHT22;5536;49.602;10.980;2022-11-03T12:49:24;14.90;99.90
10968;DHT22;5536;49.602;10.980;2022-11-03T12:51:51;14.80;99.90
10968;DHT22;5536;49.602;10.980;2022-11-03T12:54:18;14.70;99.90
10968;DHT22;5536;49.602;10.980;2022-11-03T12:56:46;14.80;99.90
10968;DHT22;5536;49.602;10.980;2022-11-03T12:59:13;14.80;99.90
10968;DHT22;5536;49.602;10.980;2022-11-03T13:01:40;14.90;99.90
10968;DHT22;5536;49.602;10.980;2022-11-03T13:04:07;14.90;99.90
10968;DHT22;5536;49.602;10.980;2022-11-03T13:06:35;14.80;99.90
10968;DHT22;5536;49.602;10.980;2022-11-03T13:09:02;14.80;99.90
10968;DHT22;5536;49.602;10.980;2022-11-03T13:11:29;14.80;99.90
10968;DHT22;5536;49.602;10.980;2022-11-03T13:14:13;14.70;99.90
10968;DHT22;5536;49.602;10.980;2022-11-03T13:16:40;14.60;99.90
10968;DHT22;5536;49.602;10.980;2022-11-03T13:19:07;14.60;99.90
10968;DHT22;5536;49.602;10.980;2022-11-03T13:21:36;14.60;99.90
10968;DHT22;5536;49.602;10.980;2022-11-03T13:24:04;14.50;99.90
10968;DHT22;5536;49.602;10.980;2022-11-03T13:26:31;14.40;99.90
10968;DHT22;5536;49.602;10.980;2022-11-03T13:28:58;14.30;99.90
10968;DHT22;5536;49.602;10.980;2022-11-03T13:31:24;14.30;99.90
10968;DHT22;5536;49.602;10.980;2022-11-03T13:33:51;14.30;99.90
10968;DHT22;5536;49.602;10.980;2022-11-03T13:36:18;14.20;99.90
10968;DHT22;5536;49.602;10.980;2022-11-03T13:38:46;14.30;99.90
10968;DHT22;5536;49.602;10.980;2022-11-03T13:41:13;14.30;99.90
10968;DHT22;5536;49.602;10.980;2022-11-03T13:43:40;14.30;99.90
10968;DHT22;5536;49.602;10.980;2022-11-03T13:46:07;14.30;99.90
10968;DHT22;5536;49.602;10.980;2022-11-03T13:48:34;14.30;99.90
10968;DHT22;5536;49.602;10.980;2022-11-03T13:51:01;14.20;99.90
10968;DHT22;5536;49.602;10.980;2022-11-03T13:53:28;14.10;99.90
10968;DHT22;5536;49.602;10.980;2022-11-03T13:55:56;14.10;99.90
10968;DHT22;5536;49.602;10.980;2022-11-03T13:58:23;14.00;99.90
10968;DHT22;5536;49.602;10.980;2022-11-03T14:00:50;14.00;99.90
10968;DHT22;5536;49.602;10.980;2022-11-03T14:03:17;14.00;99.90
10968;DHT22;5536;49.602;10.980;2022-11-03T14:05:44;13.90;99.90
10968;DHT22;5536;49.602;10.980;2022-11-03T14:08:11;13.90;99.90
10968;DHT22;5536;49.602;10.980;2022-11-03T14:10:38;13.90;99.90
10968;DHT22;5536;49.602;10.980;2022-11-03T14:13:06;13.90;99.90
10968;DHT22;5536;49.602;10.980;2022-11-03T14:15:32;13.90;99.90
10968;DHT22;5536;49.602;10.980;2022-11-03T14:18:00;13.80;99.90
10968;DHT22;5536;49.602;10.980;2022-11-03T14:20:26;13.80;99.90
10968;DHT22;5536;49.602;10.980;2022-11-03T14:22:53;13.70;99.90
10968;DHT22;5536;49.602;10.980;2022-11-03T14:25:20;13.60;99.90
10968;DHT22;5536;49.602;10.980;2022-11-03T14:27:47;13.60;99.90
10968;DHT22;5536;49.602;10.980;2022-11-03T14:30:16;13.50;99.90
10968;DHT22;5536;49.602;10.980;2022-11-03T14:32:43;13.50;99.90
10968;DHT22;5536;49.602;10.980;2022-11-03T14:35:10;13.50;99.90
10968;DHT22;5536;49.602;10.980;2022-11-03T14:37:37;13.50;99.90
10968;DHT22;5536;49.602;10.980;2022-11-03T14:40:05;13.40;99.90
10968;DHT22;5536;49.602;10.980;2022-11-03T14:42:32;13.40;99.90
10968;DHT22;5536;49.602;10.980;2022-11-03T14:44:58;13.40;99.90
10968;DHT22;5536;49.602;10.980;2022-11-03T14:47:27;13.30;99.90
10968;DHT22;5536;49.602;10.980;2022-11-03T14:49:55;13.20;99.90
10968;DHT22;5536;49.602;10.980;2022-11-03T14:52:22;13.20;99.90
10968;DHT22;5536;49.602;10.980;2022-11-03T14:54:49;13.20;99.90
10968;DHT22;5536;49.602;10.980;2022-11-03T14:57:18;13.10;99.90
10968;DHT22;5536;49.602;10.980;2022-11-03T14:59:44;13.10;99.90
10968;DHT22;5536;49.602;10.980;2022-11-03T15:02:11;13.00;99.90
10968;DHT22;5536;49.602;10.980;2022-11-03T15:04:40;13.00;99.90
10968;DHT22;5536;49.602;10.980;2022-11-03T15:07:07;13.00;99.90
10968;DHT22;5536;49.602;10.980;2022-11-03T15:09:33;12.90;99.90
10968;DHT22;5536;49.602;10.980;2022-11-03T15:12:00;12.90;99.90
10968;DHT22;5536;49.602;10.980;2022-11-03T15:14:27;12.90;99.90
10968;DHT22;5536;49.602;10.980;2022-11-03T15:16:55;12.80;99.90
10968;DHT22;5536;49.602;10.980;2022-11-03T15:19:22;12.80;99.90
10968;DHT22;5536;49.602;10.980;2022-11-03T15:21:50;12.80;99.90
10968;DHT22;5536;49.602;10.980;2022-11-03T15:24:17;12.70;99.90
10968;DHT22;5536;49.602;10.980;2022-11-03T15:26:44;12.70;99.90
10968;DHT22;5536;49.602;10.980;2022-11-03T15:29:11;12.70;99.90
10968;DHT22;5536;49.602;10.980;2022-11-03T15:31:38;12.60;99.90
10968;DHT22;5536;49.602;10.980;2022-11-03T15:34:05;12.60;99.90
10968;DHT22;5536;49.602;10.980;2022-11-03T15:36:31;12.50;99.90
10968;DHT22;5536;49.602;10.980;2022-11-03T15:39:00;12.50;99.90
10968;DHT22;5536;49.602;10.980;2022-11-03T15:41:27;12.40;99.90
10968;DHT22;5536;49.602;10.980;2022-11-03T15:43:53;12.40;99.90
10968;DHT22;5536;49.602;10.980;2022-11-03T15:46:20;12.40;99.90
10968;DHT22;5536;49.602;10.980;2022-11-03T15:48:47;12.30;99.90
10968;DHT22;5536;49.602;10.980;2022-11-03T15:51:14;12.40;99.90
10968;DHT22;5536;49.602;10.980;2022-11-03T15:53:41;12.30;99.90
10968;DHT22;5536;49.602;10.980;2022-11-03T15:56:10;12.30;99.90
10968;DHT22;5536;49.602;10.980;2022-11-03T15:58:37;12.30;99.90
10968;DHT22;5536;49.602;10.980;2022-11-03T16:01:04;12.30;99.90
10968;DHT22;5536;49.602;10.980;2022-11-03T16:03:31;12.30;99.90
10968;DHT22;5536;49.602;10.980;2022-11-03T16:05:58;12.20;99.90
10968;DHT22;5536;49.602;10.980;2022-11-03T16:08:25;12.20;99.90
10968;DHT22;5536;49.602;10.980;2022-11-03T16:10:53;12.10;99.90
10968;DHT22;5536;49.602;10.980;2022-11-03T16:13:21;12.10;99.90
10968;DHT22;5536;49.602;10.980;2022-11-03T16:15:48;12.00;99.90
10968;DHT22;5536;49.602;10.980;2022-11-03T16:18:15;12.00;99.90
10968;DHT22;5536;49.602;10.980;2022-11-03T16:20:42;11.90;99.90
10968;DHT22;5536;49.602;10.980;2022-11-03T16:23:09;11.90;99.90
10968;DHT22;5536;49.602;10.980;2022-11-03T16:25:35;11.90;99.90
10968;DHT22;5536;49.602;10.980;2022-11-03T16:28:03;11.80;99.90
10968;DHT22;5536;49.602;10.980;2022-11-03T16:30:31;11.80;99.90
10968;DHT22;5536;49.602;10.980;2022-11-03T16:32:59;11.70;99.90
10968;DHT22;5536;49.602;10.980;2022-11-03T16:35:26;11.80;99.90
10968;DHT22;5536;49.602;10.980;2022-11-03T16:37:54;11.80;99.90
10968;DHT22;5536;49.602;10.980;2022-11-03T16:40:21;11.70;99.90
10968;DHT22;5536;49.602;10.980;2022-11-03T16:42:48;11.70;99.90
10968;DHT22;5536;49.602;10.980;2022-11-03T16:45:16;11.70;99.90
10968;DHT22;5536;49.602;10.980;2022-11-03T16:47:45;11.70;99.90